<?xml version="1.0" encoding="UTF-8" ?>
<gpx version="1.1" xmlns:xsi="http://www.w3.org/2001/XMLSchema-instance" 
    xmlns="http://www.topografix.com/GPX/1/1" 
    xsi:schemaLocation="http://www.topografix.com/GPX/1/1 http://www.topografix.com/GPX/1/1/gpx.xsd" 
    creator="Openrunner - https://www.openrunner.com" >	<trk>
						<name>14979771-Rando des Trois Rivières</name>
						<trkseg>
					<trkpt lat="45.588180" lon="4.400850">
						<ele>622</ele>
						<time>2022-06-17T15:39:19Z</time>
					</trkpt>
					<trkpt lat="45.588240" lon="4.400710">
						<ele>621</ele>
						<time>2022-06-17T15:39:34Z</time>
					</trkpt>
					<trkpt lat="45.588650" lon="4.400290">
						<ele>618</ele>
						<time>2022-06-17T15:40:42Z</time>
					</trkpt>
					<trkpt lat="45.589350" lon="4.398480">
						<ele>604</ele>
						<time>2022-06-17T15:43:55Z</time>
					</trkpt>
					<trkpt lat="45.589440" lon="4.396830">
						<ele>595</ele>
						<time>2022-06-17T15:46:29Z</time>
					</trkpt>
					<trkpt lat="45.589620" lon="4.396850">
						<ele>596</ele>
						<time>2022-06-17T15:46:53Z</time>
					</trkpt>
					<trkpt lat="45.589990" lon="4.396990">
						<ele>596</ele>
						<time>2022-06-17T15:47:44Z</time>
					</trkpt>
					<trkpt lat="45.590270" lon="4.397010">
						<ele>593</ele>
						<time>2022-06-17T15:48:22Z</time>
					</trkpt>
					<trkpt lat="45.590420" lon="4.396980">
						<ele>591</ele>
						<time>2022-06-17T15:48:42Z</time>
					</trkpt>
					<trkpt lat="45.592530" lon="4.396390">
						<ele>555</ele>
						<time>2022-06-17T15:53:29Z</time>
					</trkpt>
					<trkpt lat="45.593070" lon="4.395710">
						<ele>544</ele>
						<time>2022-06-17T15:55:05Z</time>
					</trkpt>
					<trkpt lat="45.593190" lon="4.395710">
						<ele>542</ele>
						<time>2022-06-17T15:55:21Z</time>
					</trkpt>
					<trkpt lat="45.593700" lon="4.395990">
						<ele>535</ele>
						<time>2022-06-17T15:56:34Z</time>
					</trkpt>
					<trkpt lat="45.594480" lon="4.396320">
						<ele>524</ele>
						<time>2022-06-17T15:58:23Z</time>
					</trkpt>
					<trkpt lat="45.595230" lon="4.396450">
						<ele>516</ele>
						<time>2022-06-17T16:00:03Z</time>
					</trkpt>
					<trkpt lat="45.595380" lon="4.396520">
						<ele>515</ele>
						<time>2022-06-17T16:00:24Z</time>
					</trkpt>
					<trkpt lat="45.595510" lon="4.396520">
						<ele>515</ele>
						<time>2022-06-17T16:00:42Z</time>
					</trkpt>
					<trkpt lat="45.595810" lon="4.396420">
						<ele>513</ele>
						<time>2022-06-17T16:01:23Z</time>
					</trkpt>
					<trkpt lat="45.595970" lon="4.395410">
						<ele>515</ele>
						<time>2022-06-17T16:03:00Z</time>
					</trkpt>
					<trkpt lat="45.596200" lon="4.395190">
						<ele>513</ele>
						<time>2022-06-17T16:03:37Z</time>
					</trkpt>
					<trkpt lat="45.596300" lon="4.395060">
						<ele>512</ele>
						<time>2022-06-17T16:03:55Z</time>
					</trkpt>
					<trkpt lat="45.596410" lon="4.394960">
						<ele>511</ele>
						<time>2022-06-17T16:04:12Z</time>
					</trkpt>
					<trkpt lat="45.596350" lon="4.395100">
						<ele>512</ele>
						<time>2022-06-17T16:04:27Z</time>
					</trkpt>
					<trkpt lat="45.596350" lon="4.395280">
						<ele>512</ele>
						<time>2022-06-17T16:04:44Z</time>
					</trkpt>
					<trkpt lat="45.596400" lon="4.395420">
						<ele>512</ele>
						<time>2022-06-17T16:04:59Z</time>
					</trkpt>
					<trkpt lat="45.596460" lon="4.395510">
						<ele>512</ele>
						<time>2022-06-17T16:05:10Z</time>
					</trkpt>
					<trkpt lat="45.596570" lon="4.395560">
						<ele>512</ele>
						<time>2022-06-17T16:05:26Z</time>
					</trkpt>
					<trkpt lat="45.596850" lon="4.395490">
						<ele>512</ele>
						<time>2022-06-17T16:06:04Z</time>
					</trkpt>
					<trkpt lat="45.597640" lon="4.395190">
						<ele>511</ele>
						<time>2022-06-17T16:07:53Z</time>
					</trkpt>
					<trkpt lat="45.597920" lon="4.395040">
						<ele>511</ele>
						<time>2022-06-17T16:08:33Z</time>
					</trkpt>
					<trkpt lat="45.598030" lon="4.394930">
						<ele>511</ele>
						<time>2022-06-17T16:08:51Z</time>
					</trkpt>
					<trkpt lat="45.598130" lon="4.394800">
						<ele>510</ele>
						<time>2022-06-17T16:09:09Z</time>
					</trkpt>
					<trkpt lat="45.598400" lon="4.394520">
						<ele>508</ele>
						<time>2022-06-17T16:09:53Z</time>
					</trkpt>
					<trkpt lat="45.598500" lon="4.394450">
						<ele>508</ele>
						<time>2022-06-17T16:10:08Z</time>
					</trkpt>
					<trkpt lat="45.598790" lon="4.394490">
						<ele>513</ele>
						<time>2022-06-17T16:10:47Z</time>
					</trkpt>
					<trkpt lat="45.598910" lon="4.394480">
						<ele>515</ele>
						<time>2022-06-17T16:11:03Z</time>
					</trkpt>
					<trkpt lat="45.599000" lon="4.394440">
						<ele>516</ele>
						<time>2022-06-17T16:11:16Z</time>
					</trkpt>
					<trkpt lat="45.599420" lon="4.394090">
						<ele>517</ele>
						<time>2022-06-17T16:12:20Z</time>
					</trkpt>
					<trkpt lat="45.599570" lon="4.394060">
						<ele>518</ele>
						<time>2022-06-17T16:12:41Z</time>
					</trkpt>
					<trkpt lat="45.599730" lon="4.394110">
						<ele>519</ele>
						<time>2022-06-17T16:13:02Z</time>
					</trkpt>
					<trkpt lat="45.599980" lon="4.394270">
						<ele>523</ele>
						<time>2022-06-17T16:13:39Z</time>
					</trkpt>
					<trkpt lat="45.600820" lon="4.394950">
						<ele>530</ele>
						<time>2022-06-17T16:15:48Z</time>
					</trkpt>
					<trkpt lat="45.601710" lon="4.394500">
						<ele>529</ele>
						<time>2022-06-17T16:17:54Z</time>
					</trkpt>
					<trkpt lat="45.601920" lon="4.394300">
						<ele>530</ele>
						<time>2022-06-17T16:18:27Z</time>
					</trkpt>
					<trkpt lat="45.602130" lon="4.394040">
						<ele>529</ele>
						<time>2022-06-17T16:19:05Z</time>
					</trkpt>
					<trkpt lat="45.602340" lon="4.393730">
						<ele>528</ele>
						<time>2022-06-17T16:19:45Z</time>
					</trkpt>
					<trkpt lat="45.602710" lon="4.393430">
						<ele>528</ele>
						<time>2022-06-17T16:20:42Z</time>
					</trkpt>
					<trkpt lat="45.602850" lon="4.393280">
						<ele>527</ele>
						<time>2022-06-17T16:21:05Z</time>
					</trkpt>
					<trkpt lat="45.602990" lon="4.393040">
						<ele>526</ele>
						<time>2022-06-17T16:21:34Z</time>
					</trkpt>
					<trkpt lat="45.603560" lon="4.392500">
						<ele>527</ele>
						<time>2022-06-17T16:23:05Z</time>
					</trkpt>
					<trkpt lat="45.603820" lon="4.392360">
						<ele>527</ele>
						<time>2022-06-17T16:23:42Z</time>
					</trkpt>
					<trkpt lat="45.603980" lon="4.392330">
						<ele>527</ele>
						<time>2022-06-17T16:24:04Z</time>
					</trkpt>
					<trkpt lat="45.604100" lon="4.392340">
						<ele>528</ele>
						<time>2022-06-17T16:24:20Z</time>
					</trkpt>
					<trkpt lat="45.604150" lon="4.392340">
						<ele>528</ele>
						<time>2022-06-17T16:24:27Z</time>
					</trkpt>
					<trkpt lat="45.603920" lon="4.392880">
						<ele>531</ele>
						<time>2022-06-17T16:25:26Z</time>
					</trkpt>
					<trkpt lat="45.603810" lon="4.393710">
						<ele>534</ele>
						<time>2022-06-17T16:26:45Z</time>
					</trkpt>
					<trkpt lat="45.603670" lon="4.394460">
						<ele>536</ele>
						<time>2022-06-17T16:27:57Z</time>
					</trkpt>
					<trkpt lat="45.603670" lon="4.394860">
						<ele>537</ele>
						<time>2022-06-17T16:28:34Z</time>
					</trkpt>
					<trkpt lat="45.603620" lon="4.395260">
						<ele>539</ele>
						<time>2022-06-17T16:29:12Z</time>
					</trkpt>
					<trkpt lat="45.603840" lon="4.395510">
						<ele>538</ele>
						<time>2022-06-17T16:29:50Z</time>
					</trkpt>
					<trkpt lat="45.604210" lon="4.396140">
						<ele>537</ele>
						<time>2022-06-17T16:31:07Z</time>
					</trkpt>
					<trkpt lat="45.604280" lon="4.396550">
						<ele>538</ele>
						<time>2022-06-17T16:31:46Z</time>
					</trkpt>
					<trkpt lat="45.604280" lon="4.396930">
						<ele>538</ele>
						<time>2022-06-17T16:32:22Z</time>
					</trkpt>
					<trkpt lat="45.604140" lon="4.397510">
						<ele>537</ele>
						<time>2022-06-17T16:33:19Z</time>
					</trkpt>
					<trkpt lat="45.603970" lon="4.398090">
						<ele>533</ele>
						<time>2022-06-17T16:34:18Z</time>
					</trkpt>
					<trkpt lat="45.603780" lon="4.398480">
						<ele>533</ele>
						<time>2022-06-17T16:35:02Z</time>
					</trkpt>
					<trkpt lat="45.603630" lon="4.398980">
						<ele>532</ele>
						<time>2022-06-17T16:35:53Z</time>
					</trkpt>
					<trkpt lat="45.603240" lon="4.399740">
						<ele>538</ele>
						<time>2022-06-17T16:37:21Z</time>
					</trkpt>
					<trkpt lat="45.603250" lon="4.399890">
						<ele>537</ele>
						<time>2022-06-17T16:37:35Z</time>
					</trkpt>
					<trkpt lat="45.603420" lon="4.400370">
						<ele>536</ele>
						<time>2022-06-17T16:38:25Z</time>
					</trkpt>
					<trkpt lat="45.603770" lon="4.401660">
						<ele>536</ele>
						<time>2022-06-17T16:40:34Z</time>
					</trkpt>
					<trkpt lat="45.603880" lon="4.402180">
						<ele>537</ele>
						<time>2022-06-17T16:41:25Z</time>
					</trkpt>
					<trkpt lat="45.603840" lon="4.402430">
						<ele>538</ele>
						<time>2022-06-17T16:41:49Z</time>
					</trkpt>
					<trkpt lat="45.603680" lon="4.402720">
						<ele>540</ele>
						<time>2022-06-17T16:42:23Z</time>
					</trkpt>
					<trkpt lat="45.603290" lon="4.403100">
						<ele>545</ele>
						<time>2022-06-17T16:43:26Z</time>
					</trkpt>
					<trkpt lat="45.603070" lon="4.403250">
						<ele>548</ele>
						<time>2022-06-17T16:43:59Z</time>
					</trkpt>
					<trkpt lat="45.602870" lon="4.403320">
						<ele>549</ele>
						<time>2022-06-17T16:44:26Z</time>
					</trkpt>
					<trkpt lat="45.602650" lon="4.405240">
						<ele>560</ele>
						<time>2022-06-17T16:47:28Z</time>
					</trkpt>
					<trkpt lat="45.602580" lon="4.405400">
						<ele>561</ele>
						<time>2022-06-17T16:47:46Z</time>
					</trkpt>
					<trkpt lat="45.602560" lon="4.405520">
						<ele>562</ele>
						<time>2022-06-17T16:47:57Z</time>
					</trkpt>
					<trkpt lat="45.602630" lon="4.405840">
						<ele>563</ele>
						<time>2022-06-17T16:48:28Z</time>
					</trkpt>
					<trkpt lat="45.602640" lon="4.406050">
						<ele>563</ele>
						<time>2022-06-17T16:48:48Z</time>
					</trkpt>
					<trkpt lat="45.602620" lon="4.406150">
						<ele>564</ele>
						<time>2022-06-17T16:48:58Z</time>
					</trkpt>
					<trkpt lat="45.602440" lon="4.406650">
						<ele>566</ele>
						<time>2022-06-17T16:49:50Z</time>
					</trkpt>
					<trkpt lat="45.602320" lon="4.407080">
						<ele>569</ele>
						<time>2022-06-17T16:50:33Z</time>
					</trkpt>
					<trkpt lat="45.602220" lon="4.407300">
						<ele>570</ele>
						<time>2022-06-17T16:50:58Z</time>
					</trkpt>
					<trkpt lat="45.602110" lon="4.407490">
						<ele>572</ele>
						<time>2022-06-17T16:51:21Z</time>
					</trkpt>
					<trkpt lat="45.601980" lon="4.407760">
						<ele>574</ele>
						<time>2022-06-17T16:51:52Z</time>
					</trkpt>
					<trkpt lat="45.601920" lon="4.408180">
						<ele>576</ele>
						<time>2022-06-17T16:52:32Z</time>
					</trkpt>
					<trkpt lat="45.601840" lon="4.408450">
						<ele>578</ele>
						<time>2022-06-17T16:52:59Z</time>
					</trkpt>
					<trkpt lat="45.601830" lon="4.408660">
						<ele>578</ele>
						<time>2022-06-17T16:53:19Z</time>
					</trkpt>
					<trkpt lat="45.601800" lon="4.408780">
						<ele>579</ele>
						<time>2022-06-17T16:53:31Z</time>
					</trkpt>
					<trkpt lat="45.601710" lon="4.408990">
						<ele>580</ele>
						<time>2022-06-17T16:53:54Z</time>
					</trkpt>
					<trkpt lat="45.601830" lon="4.409160">
						<ele>578</ele>
						<time>2022-06-17T16:54:16Z</time>
					</trkpt>
					<trkpt lat="45.601820" lon="4.409260">
						<ele>578</ele>
						<time>2022-06-17T16:54:26Z</time>
					</trkpt>
					<trkpt lat="45.601780" lon="4.409330">
						<ele>578</ele>
						<time>2022-06-17T16:54:34Z</time>
					</trkpt>
					<trkpt lat="45.601700" lon="4.409410">
						<ele>579</ele>
						<time>2022-06-17T16:54:47Z</time>
					</trkpt>
					<trkpt lat="45.601760" lon="4.409420">
						<ele>578</ele>
						<time>2022-06-17T16:54:55Z</time>
					</trkpt>
					<trkpt lat="45.601890" lon="4.409380">
						<ele>577</ele>
						<time>2022-06-17T16:55:13Z</time>
					</trkpt>
					<trkpt lat="45.602340" lon="4.409460">
						<ele>572</ele>
						<time>2022-06-17T16:56:13Z</time>
					</trkpt>
					<trkpt lat="45.603060" lon="4.409720">
						<ele>564</ele>
						<time>2022-06-17T16:57:52Z</time>
					</trkpt>
					<trkpt lat="45.603240" lon="4.410380">
						<ele>560</ele>
						<time>2022-06-17T16:58:59Z</time>
					</trkpt>
					<trkpt lat="45.603320" lon="4.410590">
						<ele>558</ele>
						<time>2022-06-17T16:59:21Z</time>
					</trkpt>
					<trkpt lat="45.603440" lon="4.410770">
						<ele>558</ele>
						<time>2022-06-17T16:59:44Z</time>
					</trkpt>
					<trkpt lat="45.603590" lon="4.410940">
						<ele>557</ele>
						<time>2022-06-17T17:00:10Z</time>
					</trkpt>
					<trkpt lat="45.603750" lon="4.411010">
						<ele>557</ele>
						<time>2022-06-17T17:00:32Z</time>
					</trkpt>
					<trkpt lat="45.603930" lon="4.411030">
						<ele>556</ele>
						<time>2022-06-17T17:00:56Z</time>
					</trkpt>
					<trkpt lat="45.604080" lon="4.411010">
						<ele>556</ele>
						<time>2022-06-17T17:01:16Z</time>
					</trkpt>
					<trkpt lat="45.604310" lon="4.410900">
						<ele>555</ele>
						<time>2022-06-17T17:01:49Z</time>
					</trkpt>
					<trkpt lat="45.604320" lon="4.410950">
						<ele>555</ele>
						<time>2022-06-17T17:01:53Z</time>
					</trkpt>
					<trkpt lat="45.604520" lon="4.412020">
						<ele>555</ele>
						<time>2022-06-17T17:03:37Z</time>
					</trkpt>
					<trkpt lat="45.604400" lon="4.412020">
						<ele>556</ele>
						<time>2022-06-17T17:03:53Z</time>
					</trkpt>
					<trkpt lat="45.604270" lon="4.412060">
						<ele>556</ele>
						<time>2022-06-17T17:04:11Z</time>
					</trkpt>
					<trkpt lat="45.603830" lon="4.412350">
						<ele>558</ele>
						<time>2022-06-17T17:05:15Z</time>
					</trkpt>
					<trkpt lat="45.603640" lon="4.412450">
						<ele>560</ele>
						<time>2022-06-17T17:05:42Z</time>
					</trkpt>
					<trkpt lat="45.603380" lon="4.412510">
						<ele>562</ele>
						<time>2022-06-17T17:06:17Z</time>
					</trkpt>
					<trkpt lat="45.602930" lon="4.412350">
						<ele>564</ele>
						<time>2022-06-17T17:07:19Z</time>
					</trkpt>
					<trkpt lat="45.602660" lon="4.412310">
						<ele>565</ele>
						<time>2022-06-17T17:07:55Z</time>
					</trkpt>
					<trkpt lat="45.602400" lon="4.412320">
						<ele>567</ele>
						<time>2022-06-17T17:08:30Z</time>
					</trkpt>
					<trkpt lat="45.602100" lon="4.412290">
						<ele>569</ele>
						<time>2022-06-17T17:09:10Z</time>
					</trkpt>
					<trkpt lat="45.601960" lon="4.412250">
						<ele>570</ele>
						<time>2022-06-17T17:09:29Z</time>
					</trkpt>
					<trkpt lat="45.601310" lon="4.412000">
						<ele>575</ele>
						<time>2022-06-17T17:10:59Z</time>
					</trkpt>
					<trkpt lat="45.601090" lon="4.411870">
						<ele>577</ele>
						<time>2022-06-17T17:11:31Z</time>
					</trkpt>
					<trkpt lat="45.600730" lon="4.411630">
						<ele>580</ele>
						<time>2022-06-17T17:12:24Z</time>
					</trkpt>
					<trkpt lat="45.600610" lon="4.411530">
						<ele>580</ele>
						<time>2022-06-17T17:12:42Z</time>
					</trkpt>
					<trkpt lat="45.600480" lon="4.411470">
						<ele>581</ele>
						<time>2022-06-17T17:13:01Z</time>
					</trkpt>
					<trkpt lat="45.600560" lon="4.411530">
						<ele>580</ele>
						<time>2022-06-17T17:13:13Z</time>
					</trkpt>
					<trkpt lat="45.600600" lon="4.411630">
						<ele>580</ele>
						<time>2022-06-17T17:13:24Z</time>
					</trkpt>
					<trkpt lat="45.600620" lon="4.411990">
						<ele>581</ele>
						<time>2022-06-17T17:13:57Z</time>
					</trkpt>
					<trkpt lat="45.600600" lon="4.412100">
						<ele>582</ele>
						<time>2022-06-17T17:14:08Z</time>
					</trkpt>
					<trkpt lat="45.599970" lon="4.413370">
						<ele>595</ele>
						<time>2022-06-17T17:16:33Z</time>
					</trkpt>
					<trkpt lat="45.599780" lon="4.413880">
						<ele>603</ele>
						<time>2022-06-17T17:17:27Z</time>
					</trkpt>
					<trkpt lat="45.599550" lon="4.414670">
						<ele>611</ele>
						<time>2022-06-17T17:18:47Z</time>
					</trkpt>
					<trkpt lat="45.599570" lon="4.414700">
						<ele>611</ele>
						<time>2022-06-17T17:18:51Z</time>
					</trkpt>
					<trkpt lat="45.599630" lon="4.414890">
						<ele>612</ele>
						<time>2022-06-17T17:19:10Z</time>
					</trkpt>
					<trkpt lat="45.599660" lon="4.415090">
						<ele>612</ele>
						<time>2022-06-17T17:19:29Z</time>
					</trkpt>
					<trkpt lat="45.599640" lon="4.415530">
						<ele>609</ele>
						<time>2022-06-17T17:20:11Z</time>
					</trkpt>
					<trkpt lat="45.599720" lon="4.415820">
						<ele>607</ele>
						<time>2022-06-17T17:20:40Z</time>
					</trkpt>
					<trkpt lat="45.599690" lon="4.416000">
						<ele>605</ele>
						<time>2022-06-17T17:20:57Z</time>
					</trkpt>
					<trkpt lat="45.599580" lon="4.416160">
						<ele>602</ele>
						<time>2022-06-17T17:21:18Z</time>
					</trkpt>
					<trkpt lat="45.599400" lon="4.416230">
						<ele>601</ele>
						<time>2022-06-17T17:21:43Z</time>
					</trkpt>
					<trkpt lat="45.599110" lon="4.416280">
						<ele>600</ele>
						<time>2022-06-17T17:22:22Z</time>
					</trkpt>
					<trkpt lat="45.598710" lon="4.416170">
						<ele>599</ele>
						<time>2022-06-17T17:23:16Z</time>
					</trkpt>
					<trkpt lat="45.598080" lon="4.416100">
						<ele>599</ele>
						<time>2022-06-17T17:24:41Z</time>
					</trkpt>
					<trkpt lat="45.597860" lon="4.416110">
						<ele>601</ele>
						<time>2022-06-17T17:25:10Z</time>
					</trkpt>
					<trkpt lat="45.597770" lon="4.416160">
						<ele>601</ele>
						<time>2022-06-17T17:25:23Z</time>
					</trkpt>
					<trkpt lat="45.597690" lon="4.416290">
						<ele>599</ele>
						<time>2022-06-17T17:25:39Z</time>
					</trkpt>
					<trkpt lat="45.597670" lon="4.416410">
						<ele>597</ele>
						<time>2022-06-17T17:25:50Z</time>
					</trkpt>
					<trkpt lat="45.597820" lon="4.417300">
						<ele>585</ele>
						<time>2022-06-17T17:27:16Z</time>
					</trkpt>
					<trkpt lat="45.597420" lon="4.417680">
						<ele>588</ele>
						<time>2022-06-17T17:28:20Z</time>
					</trkpt>
					<trkpt lat="45.597150" lon="4.417880">
						<ele>588</ele>
						<time>2022-06-17T17:29:01Z</time>
					</trkpt>
					<trkpt lat="45.596680" lon="4.418160">
						<ele>591</ele>
						<time>2022-06-17T17:30:09Z</time>
					</trkpt>
					<trkpt lat="45.596450" lon="4.418240">
						<ele>592</ele>
						<time>2022-06-17T17:30:40Z</time>
					</trkpt>
					<trkpt lat="45.596330" lon="4.418390">
						<ele>591</ele>
						<time>2022-06-17T17:31:01Z</time>
					</trkpt>
					<trkpt lat="45.596230" lon="4.418610">
						<ele>590</ele>
						<time>2022-06-17T17:31:26Z</time>
					</trkpt>
					<trkpt lat="45.596160" lon="4.418700">
						<ele>590</ele>
						<time>2022-06-17T17:31:38Z</time>
					</trkpt>
					<trkpt lat="45.596040" lon="4.418700">
						<ele>591</ele>
						<time>2022-06-17T17:31:55Z</time>
					</trkpt>
					<trkpt lat="45.595820" lon="4.418420">
						<ele>594</ele>
						<time>2022-06-17T17:32:34Z</time>
					</trkpt>
					<trkpt lat="45.595550" lon="4.418200">
						<ele>596</ele>
						<time>2022-06-17T17:33:15Z</time>
					</trkpt>
					<trkpt lat="45.594940" lon="4.417600">
						<ele>595</ele>
						<time>2022-06-17T17:34:54Z</time>
					</trkpt>
					<trkpt lat="45.594910" lon="4.417590">
						<ele>595</ele>
						<time>2022-06-17T17:34:58Z</time>
					</trkpt>
					<trkpt lat="45.596730" lon="4.424730">
						<ele>591</ele>
						<time>2022-06-17T17:46:48Z</time>
					</trkpt>
					<trkpt lat="45.596570" lon="4.425420">
						<ele>600</ele>
						<time>2022-06-17T17:47:56Z</time>
					</trkpt>
					<trkpt lat="45.595810" lon="4.426230">
						<ele>601</ele>
						<time>2022-06-17T17:50:02Z</time>
					</trkpt>
					<trkpt lat="45.595410" lon="4.427170">
						<ele>603</ele>
						<time>2022-06-17T17:51:45Z</time>
					</trkpt>
					<trkpt lat="45.595270" lon="4.428090">
						<ele>607</ele>
						<time>2022-06-17T17:53:13Z</time>
					</trkpt>
					<trkpt lat="45.594020" lon="4.429320">
						<ele>621</ele>
						<time>2022-06-17T17:56:35Z</time>
					</trkpt>
					<trkpt lat="45.593550" lon="4.429030">
						<ele>618</ele>
						<time>2022-06-17T17:57:44Z</time>
					</trkpt>
					<trkpt lat="45.592860" lon="4.429390">
						<ele>619</ele>
						<time>2022-06-17T17:59:22Z</time>
					</trkpt>
					<trkpt lat="45.589150" lon="4.433200">
						<ele>644</ele>
						<time>2022-06-17T18:09:31Z</time>
					</trkpt>
					<trkpt lat="45.588920" lon="4.434180">
						<ele>652</ele>
						<time>2022-06-17T18:11:08Z</time>
					</trkpt>
					<trkpt lat="45.588320" lon="4.434900">
						<ele>655</ele>
						<time>2022-06-17T18:12:52Z</time>
					</trkpt>
					<trkpt lat="45.588160" lon="4.435630">
						<ele>660</ele>
						<time>2022-06-17T18:14:04Z</time>
					</trkpt>
					<trkpt lat="45.587700" lon="4.434610">
						<ele>650</ele>
						<time>2022-06-17T18:15:57Z</time>
					</trkpt>
					<trkpt lat="45.587260" lon="4.434280">
						<ele>645</ele>
						<time>2022-06-17T18:17:04Z</time>
					</trkpt>
					<trkpt lat="45.586670" lon="4.433100">
						<ele>627</ele>
						<time>2022-06-17T18:19:19Z</time>
					</trkpt>
					<trkpt lat="45.586690" lon="4.432280">
						<ele>615</ele>
						<time>2022-06-17T18:20:36Z</time>
					</trkpt>
					<trkpt lat="45.585100" lon="4.429500">
						<ele>623</ele>
						<time>2022-06-17T18:26:11Z</time>
					</trkpt>
					<trkpt lat="45.584940" lon="4.428630">
						<ele>627</ele>
						<time>2022-06-17T18:27:35Z</time>
					</trkpt>
					<trkpt lat="45.585420" lon="4.428300">
						<ele>626</ele>
						<time>2022-06-17T18:28:46Z</time>
					</trkpt>
					<trkpt lat="45.585420" lon="4.428280">
						<ele>626</ele>
						<time>2022-06-17T18:28:48Z</time>
					</trkpt>
					<trkpt lat="45.581750" lon="4.431130">
						<ele>658</ele>
						<time>2022-06-17T18:38:05Z</time>
					</trkpt>
					<trkpt lat="45.581270" lon="4.430410">
						<ele>655</ele>
						<time>2022-06-17T18:39:38Z</time>
					</trkpt>
					<trkpt lat="45.581180" lon="4.428180">
						<ele>649</ele>
						<time>2022-06-17T18:43:07Z</time>
					</trkpt>
					<trkpt lat="45.580660" lon="4.424910">
						<ele>643</ele>
						<time>2022-06-17T18:48:20Z</time>
					</trkpt>
					<trkpt lat="45.580650" lon="4.423830">
						<ele>631</ele>
						<time>2022-06-17T18:50:01Z</time>
					</trkpt>
					<trkpt lat="45.579770" lon="4.422730">
						<ele>626</ele>
						<time>2022-06-17T18:52:37Z</time>
					</trkpt>
					<trkpt lat="45.579520" lon="4.422310">
						<ele>626</ele>
						<time>2022-06-17T18:53:28Z</time>
					</trkpt>
					<trkpt lat="45.579510" lon="4.422150">
						<ele>626</ele>
						<time>2022-06-17T18:53:43Z</time>
					</trkpt>
					<trkpt lat="45.579560" lon="4.422080">
						<ele>627</ele>
						<time>2022-06-17T18:53:53Z</time>
					</trkpt>
					<trkpt lat="45.579700" lon="4.422030">
						<ele>626</ele>
						<time>2022-06-17T18:54:12Z</time>
					</trkpt>
					<trkpt lat="45.579880" lon="4.421880">
						<ele>627</ele>
						<time>2022-06-17T18:54:40Z</time>
					</trkpt>
					<trkpt lat="45.580070" lon="4.421650">
						<ele>627</ele>
						<time>2022-06-17T18:55:13Z</time>
					</trkpt>
					<trkpt lat="45.580220" lon="4.421290">
						<ele>632</ele>
						<time>2022-06-17T18:55:52Z</time>
					</trkpt>
					<trkpt lat="45.580360" lon="4.420890">
						<ele>637</ele>
						<time>2022-06-17T18:56:34Z</time>
					</trkpt>
					<trkpt lat="45.580530" lon="4.420550">
						<ele>640</ele>
						<time>2022-06-17T18:57:13Z</time>
					</trkpt>
					<trkpt lat="45.580920" lon="4.418460">
						<ele>657</ele>
						<time>2022-06-17T19:00:35Z</time>
					</trkpt>
					<trkpt lat="45.581000" lon="4.417930">
						<ele>658</ele>
						<time>2022-06-17T19:01:26Z</time>
					</trkpt>
					<trkpt lat="45.581340" lon="4.417840">
						<ele>658</ele>
						<time>2022-06-17T19:02:12Z</time>
					</trkpt>
					<trkpt lat="45.581800" lon="4.417540">
						<ele>659</ele>
						<time>2022-06-17T19:03:19Z</time>
					</trkpt>
					<trkpt lat="45.582370" lon="4.416470">
						<ele>658</ele>
						<time>2022-06-17T19:05:25Z</time>
					</trkpt>
					<trkpt lat="45.582340" lon="4.416530">
						<ele>658</ele>
						<time>2022-06-17T19:05:32Z</time>
					</trkpt>
					<trkpt lat="45.582220" lon="4.416400">
						<ele>656</ele>
						<time>2022-06-17T19:05:52Z</time>
					</trkpt>
					<trkpt lat="45.582020" lon="4.416430">
						<ele>654</ele>
						<time>2022-06-17T19:06:19Z</time>
					</trkpt>
					<trkpt lat="45.581850" lon="4.416560">
						<ele>654</ele>
						<time>2022-06-17T19:06:44Z</time>
					</trkpt>
					<trkpt lat="45.581690" lon="4.416540">
						<ele>652</ele>
						<time>2022-06-17T19:07:06Z</time>
					</trkpt>
					<trkpt lat="45.581590" lon="4.416490">
						<ele>652</ele>
						<time>2022-06-17T19:07:20Z</time>
					</trkpt>
					<trkpt lat="45.581450" lon="4.416300">
						<ele>652</ele>
						<time>2022-06-17T19:07:46Z</time>
					</trkpt>
					<trkpt lat="45.581360" lon="4.416080">
						<ele>652</ele>
						<time>2022-06-17T19:08:09Z</time>
					</trkpt>
					<trkpt lat="45.581200" lon="4.415460">
						<ele>650</ele>
						<time>2022-06-17T19:09:11Z</time>
					</trkpt>
					<trkpt lat="45.581160" lon="4.415150">
						<ele>647</ele>
						<time>2022-06-17T19:09:41Z</time>
					</trkpt>
					<trkpt lat="45.581050" lon="4.414830">
						<ele>646</ele>
						<time>2022-06-17T19:10:14Z</time>
					</trkpt>
					<trkpt lat="45.580370" lon="4.413230">
						<ele>635</ele>
						<time>2022-06-17T19:13:09Z</time>
					</trkpt>
					<trkpt lat="45.580180" lon="4.412800">
						<ele>634</ele>
						<time>2022-06-17T19:13:56Z</time>
					</trkpt>
					<trkpt lat="45.580110" lon="4.412420">
						<ele>631</ele>
						<time>2022-06-17T19:14:33Z</time>
					</trkpt>
					<trkpt lat="45.580120" lon="4.411790">
						<ele>627</ele>
						<time>2022-06-17T19:15:32Z</time>
					</trkpt>
					<trkpt lat="45.580090" lon="4.411580">
						<ele>625</ele>
						<time>2022-06-17T19:15:52Z</time>
					</trkpt>
					<trkpt lat="45.579840" lon="4.411250">
						<ele>622</ele>
						<time>2022-06-17T19:16:37Z</time>
					</trkpt>
					<trkpt lat="45.579600" lon="4.411010">
						<ele>619</ele>
						<time>2022-06-17T19:17:16Z</time>
					</trkpt>
					<trkpt lat="45.579370" lon="4.410860">
						<ele>617</ele>
						<time>2022-06-17T19:17:50Z</time>
					</trkpt>
					<trkpt lat="45.579260" lon="4.410830">
						<ele>617</ele>
						<time>2022-06-17T19:18:05Z</time>
					</trkpt>
					<trkpt lat="45.578920" lon="4.410980">
						<ele>617</ele>
						<time>2022-06-17T19:18:53Z</time>
					</trkpt>
					<trkpt lat="45.578850" lon="4.411080">
						<ele>618</ele>
						<time>2022-06-17T19:19:06Z</time>
					</trkpt>
					<trkpt lat="45.578740" lon="4.411090">
						<ele>617</ele>
						<time>2022-06-17T19:19:20Z</time>
					</trkpt>
					<trkpt lat="45.578510" lon="4.411060">
						<ele>616</ele>
						<time>2022-06-17T19:19:51Z</time>
					</trkpt>
					<trkpt lat="45.577930" lon="4.411280">
						<ele>615</ele>
						<time>2022-06-17T19:21:11Z</time>
					</trkpt>
					<trkpt lat="45.577660" lon="4.411390">
						<ele>614</ele>
						<time>2022-06-17T19:21:49Z</time>
					</trkpt>
					<trkpt lat="45.577440" lon="4.411650">
						<ele>614</ele>
						<time>2022-06-17T19:22:27Z</time>
					</trkpt>
					<trkpt lat="45.577330" lon="4.411750">
						<ele>615</ele>
						<time>2022-06-17T19:22:44Z</time>
					</trkpt>
					<trkpt lat="45.576420" lon="4.412260">
						<ele>616</ele>
						<time>2022-06-17T19:24:55Z</time>
					</trkpt>
					<trkpt lat="45.576180" lon="4.412490">
						<ele>617</ele>
						<time>2022-06-17T19:25:33Z</time>
					</trkpt>
					<trkpt lat="45.576120" lon="4.412590">
						<ele>618</ele>
						<time>2022-06-17T19:25:46Z</time>
					</trkpt>
					<trkpt lat="45.576040" lon="4.412850">
						<ele>619</ele>
						<time>2022-06-17T19:26:12Z</time>
					</trkpt>
					<trkpt lat="45.575990" lon="4.412950">
						<ele>620</ele>
						<time>2022-06-17T19:26:24Z</time>
					</trkpt>
					<trkpt lat="45.575930" lon="4.412980">
						<ele>620</ele>
						<time>2022-06-17T19:26:32Z</time>
					</trkpt>
					<trkpt lat="45.575780" lon="4.413010">
						<ele>620</ele>
						<time>2022-06-17T19:26:52Z</time>
					</trkpt>
					<trkpt lat="45.575680" lon="4.413000">
						<ele>621</ele>
						<time>2022-06-17T19:27:06Z</time>
					</trkpt>
					<trkpt lat="45.575630" lon="4.412960">
						<ele>621</ele>
						<time>2022-06-17T19:27:13Z</time>
					</trkpt>
					<trkpt lat="45.575510" lon="4.412750">
						<ele>622</ele>
						<time>2022-06-17T19:27:39Z</time>
					</trkpt>
					<trkpt lat="45.575520" lon="4.412690">
						<ele>622</ele>
						<time>2022-06-17T19:27:44Z</time>
					</trkpt>
					<trkpt lat="45.575810" lon="4.411930">
						<ele>618</ele>
						<time>2022-06-17T19:29:05Z</time>
					</trkpt>
					<trkpt lat="45.575880" lon="4.411720">
						<ele>617</ele>
						<time>2022-06-17T19:29:27Z</time>
					</trkpt>
					<trkpt lat="45.575910" lon="4.411470">
						<ele>618</ele>
						<time>2022-06-17T19:29:51Z</time>
					</trkpt>
					<trkpt lat="45.575910" lon="4.411270">
						<ele>619</ele>
						<time>2022-06-17T19:30:09Z</time>
					</trkpt>
					<trkpt lat="45.575850" lon="4.411020">
						<ele>621</ele>
						<time>2022-06-17T19:30:34Z</time>
					</trkpt>
					<trkpt lat="45.575810" lon="4.410990">
						<ele>622</ele>
						<time>2022-06-17T19:30:40Z</time>
					</trkpt>
					<trkpt lat="45.575590" lon="4.411010">
						<ele>625</ele>
						<time>2022-06-17T19:31:10Z</time>
					</trkpt>
					<trkpt lat="45.574430" lon="4.410800">
						<ele>638</ele>
						<time>2022-06-17T19:33:46Z</time>
					</trkpt>
					<trkpt lat="45.574320" lon="4.410720">
						<ele>639</ele>
						<time>2022-06-17T19:34:02Z</time>
					</trkpt>
					<trkpt lat="45.573120" lon="4.409600">
						<ele>633</ele>
						<time>2022-06-17T19:37:13Z</time>
					</trkpt>
					<trkpt lat="45.572220" lon="4.408920">
						<ele>624</ele>
						<time>2022-06-17T19:39:29Z</time>
					</trkpt>
					<trkpt lat="45.572080" lon="4.408900">
						<ele>623</ele>
						<time>2022-06-17T19:39:48Z</time>
					</trkpt>
					<trkpt lat="45.571890" lon="4.408980">
						<ele>623</ele>
						<time>2022-06-17T19:40:14Z</time>
					</trkpt>
					<trkpt lat="45.571750" lon="4.409000">
						<ele>622</ele>
						<time>2022-06-17T19:40:33Z</time>
					</trkpt>
					<trkpt lat="45.571390" lon="4.408960">
						<ele>624</ele>
						<time>2022-06-17T19:41:21Z</time>
					</trkpt>
					<trkpt lat="45.571270" lon="4.408860">
						<ele>625</ele>
						<time>2022-06-17T19:41:40Z</time>
					</trkpt>
					<trkpt lat="45.571240" lon="4.408730">
						<ele>624</ele>
						<time>2022-06-17T19:41:53Z</time>
					</trkpt>
					<trkpt lat="45.571280" lon="4.408340">
						<ele>621</ele>
						<time>2022-06-17T19:42:29Z</time>
					</trkpt>
					<trkpt lat="45.571250" lon="4.408030">
						<ele>619</ele>
						<time>2022-06-17T19:42:59Z</time>
					</trkpt>
					<trkpt lat="45.571140" lon="4.407780">
						<ele>619</ele>
						<time>2022-06-17T19:43:26Z</time>
					</trkpt>
					<trkpt lat="45.570520" lon="4.406930">
						<ele>622</ele>
						<time>2022-06-17T19:45:21Z</time>
					</trkpt>
					<trkpt lat="45.570130" lon="4.406640">
						<ele>624</ele>
						<time>2022-06-17T19:46:20Z</time>
					</trkpt>
					<trkpt lat="45.570110" lon="4.406570">
						<ele>625</ele>
						<time>2022-06-17T19:46:27Z</time>
					</trkpt>
					<trkpt lat="45.570100" lon="4.406460">
						<ele>625</ele>
						<time>2022-06-17T19:46:37Z</time>
					</trkpt>
					<trkpt lat="45.570110" lon="4.406380">
						<ele>626</ele>
						<time>2022-06-17T19:46:45Z</time>
					</trkpt>
					<trkpt lat="45.570150" lon="4.406290">
						<ele>626</ele>
						<time>2022-06-17T19:46:55Z</time>
					</trkpt>
					<trkpt lat="45.570240" lon="4.406200">
						<ele>626</ele>
						<time>2022-06-17T19:47:09Z</time>
					</trkpt>
					<trkpt lat="45.570390" lon="4.406100">
						<ele>625</ele>
						<time>2022-06-17T19:47:31Z</time>
					</trkpt>
					<trkpt lat="45.570450" lon="4.406010">
						<ele>625</ele>
						<time>2022-06-17T19:47:43Z</time>
					</trkpt>
					<trkpt lat="45.570510" lon="4.405870">
						<ele>625</ele>
						<time>2022-06-17T19:47:58Z</time>
					</trkpt>
					<trkpt lat="45.570500" lon="4.405690">
						<ele>626</ele>
						<time>2022-06-17T19:48:15Z</time>
					</trkpt>
					<trkpt lat="45.570450" lon="4.405570">
						<ele>626</ele>
						<time>2022-06-17T19:48:28Z</time>
					</trkpt>
					<trkpt lat="45.570470" lon="4.405290">
						<ele>626</ele>
						<time>2022-06-17T19:48:55Z</time>
					</trkpt>
					<trkpt lat="45.570480" lon="4.405290">
						<ele>626</ele>
						<time>2022-06-17T19:48:56Z</time>
					</trkpt>
					<trkpt lat="45.578000" lon="4.390770">
						<ele>637</ele>
						<time>2022-06-17T20:17:03Z</time>
					</trkpt>
					<trkpt lat="45.578890" lon="4.391770">
						<ele>623</ele>
						<time>2022-06-17T20:19:34Z</time>
					</trkpt>
					<trkpt lat="45.579360" lon="4.392620">
						<ele>607</ele>
						<time>2022-06-17T20:21:15Z</time>
					</trkpt>
					<trkpt lat="45.581030" lon="4.393530">
						<ele>598</ele>
						<time>2022-06-17T20:25:14Z</time>
					</trkpt>
					<trkpt lat="45.581170" lon="4.395660">
						<ele>558</ele>
						<time>2022-06-17T20:28:34Z</time>
					</trkpt>
					<trkpt lat="45.582330" lon="4.395080">
						<ele>551</ele>
						<time>2022-06-17T20:31:18Z</time>
					</trkpt>
					<trkpt lat="45.582570" lon="4.395860">
						<ele>547</ele>
						<time>2022-06-17T20:32:37Z</time>
					</trkpt>
					<trkpt lat="45.582620" lon="4.395940">
						<ele>548</ele>
						<time>2022-06-17T20:32:47Z</time>
					</trkpt>
					<trkpt lat="45.582680" lon="4.395980">
						<ele>548</ele>
						<time>2022-06-17T20:32:56Z</time>
					</trkpt>
					<trkpt lat="45.582810" lon="4.395960">
						<ele>548</ele>
						<time>2022-06-17T20:33:14Z</time>
					</trkpt>
					<trkpt lat="45.582970" lon="4.396030">
						<ele>549</ele>
						<time>2022-06-17T20:33:36Z</time>
					</trkpt>
					<trkpt lat="45.583140" lon="4.396140">
						<ele>551</ele>
						<time>2022-06-17T20:34:01Z</time>
					</trkpt>
					<trkpt lat="45.583320" lon="4.396280">
						<ele>553</ele>
						<time>2022-06-17T20:34:28Z</time>
					</trkpt>
					<trkpt lat="45.583460" lon="4.396450">
						<ele>557</ele>
						<time>2022-06-17T20:34:53Z</time>
					</trkpt>
					<trkpt lat="45.583580" lon="4.396330">
						<ele>556</ele>
						<time>2022-06-17T20:35:12Z</time>
					</trkpt>
					<trkpt lat="45.584030" lon="4.396030">
						<ele>555</ele>
						<time>2022-06-17T20:36:18Z</time>
					</trkpt>
					<trkpt lat="45.584070" lon="4.395990">
						<ele>554</ele>
						<time>2022-06-17T20:36:25Z</time>
					</trkpt>
					<trkpt lat="45.584080" lon="4.395940">
						<ele>553</ele>
						<time>2022-06-17T20:36:30Z</time>
					</trkpt>
					<trkpt lat="45.584070" lon="4.395860">
						<ele>552</ele>
						<time>2022-06-17T20:36:37Z</time>
					</trkpt>
					<trkpt lat="45.583870" lon="4.395340">
						<ele>543</ele>
						<time>2022-06-17T20:37:33Z</time>
					</trkpt>
					<trkpt lat="45.583810" lon="4.394550">
						<ele>539</ele>
						<time>2022-06-17T20:38:47Z</time>
					</trkpt>
					<trkpt lat="45.583820" lon="4.394460">
						<ele>539</ele>
						<time>2022-06-17T20:38:56Z</time>
					</trkpt>
					<trkpt lat="45.583980" lon="4.394020">
						<ele>540</ele>
						<time>2022-06-17T20:39:42Z</time>
					</trkpt>
					<trkpt lat="45.584070" lon="4.393880">
						<ele>541</ele>
						<time>2022-06-17T20:40:00Z</time>
					</trkpt>
					<trkpt lat="45.584260" lon="4.393620">
						<ele>543</ele>
						<time>2022-06-17T20:40:35Z</time>
					</trkpt>
					<trkpt lat="45.584590" lon="4.393090">
						<ele>545</ele>
						<time>2022-06-17T20:41:41Z</time>
					</trkpt>
					<trkpt lat="45.584800" lon="4.392780">
						<ele>545</ele>
						<time>2022-06-17T20:42:21Z</time>
					</trkpt>
					<trkpt lat="45.584800" lon="4.392680">
						<ele>546</ele>
						<time>2022-06-17T20:42:31Z</time>
					</trkpt>
					<trkpt lat="45.584470" lon="4.392240">
						<ele>553</ele>
						<time>2022-06-17T20:43:31Z</time>
					</trkpt>
					<trkpt lat="45.584030" lon="4.391740">
						<ele>562</ele>
						<time>2022-06-17T20:44:46Z</time>
					</trkpt>
					<trkpt lat="45.584110" lon="4.391470">
						<ele>564</ele>
						<time>2022-06-17T20:45:13Z</time>
					</trkpt>
					<trkpt lat="45.584160" lon="4.390990">
						<ele>570</ele>
						<time>2022-06-17T20:45:59Z</time>
					</trkpt>
					<trkpt lat="45.584130" lon="4.389910">
						<ele>582</ele>
						<time>2022-06-17T20:47:40Z</time>
					</trkpt>
					<trkpt lat="45.584230" lon="4.389690">
						<ele>581</ele>
						<time>2022-06-17T20:48:04Z</time>
					</trkpt>
					<trkpt lat="45.584250" lon="4.389460">
						<ele>582</ele>
						<time>2022-06-17T20:48:26Z</time>
					</trkpt>
					<trkpt lat="45.584140" lon="4.389240">
						<ele>588</ele>
						<time>2022-06-17T20:48:51Z</time>
					</trkpt>
					<trkpt lat="45.584020" lon="4.389080">
						<ele>590</ele>
						<time>2022-06-17T20:49:13Z</time>
					</trkpt>
					<trkpt lat="45.583710" lon="4.388390">
						<ele>593</ele>
						<time>2022-06-17T20:50:29Z</time>
					</trkpt>
					<trkpt lat="45.583400" lon="4.387780">
						<ele>593</ele>
						<time>2022-06-17T20:51:40Z</time>
					</trkpt>
					<trkpt lat="45.583060" lon="4.387310">
						<ele>592</ele>
						<time>2022-06-17T20:52:43Z</time>
					</trkpt>
					<trkpt lat="45.583850" lon="4.387050">
						<ele>586</ele>
						<time>2022-06-17T20:54:31Z</time>
					</trkpt>
					<trkpt lat="45.583920" lon="4.387010">
						<ele>585</ele>
						<time>2022-06-17T20:54:41Z</time>
					</trkpt>
					<trkpt lat="45.584070" lon="4.386920">
						<ele>583</ele>
						<time>2022-06-17T20:55:03Z</time>
					</trkpt>
					<trkpt lat="45.584380" lon="4.386650">
						<ele>578</ele>
						<time>2022-06-17T20:55:51Z</time>
					</trkpt>
					<trkpt lat="45.584720" lon="4.386310">
						<ele>573</ele>
						<time>2022-06-17T20:56:47Z</time>
					</trkpt>
					<trkpt lat="45.585080" lon="4.385980">
						<ele>569</ele>
						<time>2022-06-17T20:57:44Z</time>
					</trkpt>
					<trkpt lat="45.585390" lon="4.385640">
						<ele>566</ele>
						<time>2022-06-17T20:58:36Z</time>
					</trkpt>
					<trkpt lat="45.585860" lon="4.385040">
						<ele>565</ele>
						<time>2022-06-17T21:00:00Z</time>
					</trkpt>
					<trkpt lat="45.586040" lon="4.384520">
						<ele>556</ele>
						<time>2022-06-17T21:00:54Z</time>
					</trkpt>
					<trkpt lat="45.586100" lon="4.384000">
						<ele>549</ele>
						<time>2022-06-17T21:01:43Z</time>
					</trkpt>
					<trkpt lat="45.586100" lon="4.383430">
						<ele>544</ele>
						<time>2022-06-17T21:02:37Z</time>
					</trkpt>
					<trkpt lat="45.586370" lon="4.383650">
						<ele>541</ele>
						<time>2022-06-17T21:03:18Z</time>
					</trkpt>
					<trkpt lat="45.586670" lon="4.383450">
						<ele>535</ele>
						<time>2022-06-17T21:04:02Z</time>
					</trkpt>
					<trkpt lat="45.586780" lon="4.383200">
						<ele>534</ele>
						<time>2022-06-17T21:04:30Z</time>
					</trkpt>
					<trkpt lat="45.586880" lon="4.383140">
						<ele>534</ele>
						<time>2022-06-17T21:04:44Z</time>
					</trkpt>
					<trkpt lat="45.587020" lon="4.383140">
						<ele>535</ele>
						<time>2022-06-17T21:05:03Z</time>
					</trkpt>
					<trkpt lat="45.587510" lon="4.383330">
						<ele>536</ele>
						<time>2022-06-17T21:06:11Z</time>
					</trkpt>
					<trkpt lat="45.587840" lon="4.383400">
						<ele>541</ele>
						<time>2022-06-17T21:06:55Z</time>
					</trkpt>
					<trkpt lat="45.588040" lon="4.383390">
						<ele>544</ele>
						<time>2022-06-17T21:07:22Z</time>
					</trkpt>
					<trkpt lat="45.588240" lon="4.383320">
						<ele>548</ele>
						<time>2022-06-17T21:07:50Z</time>
					</trkpt>
					<trkpt lat="45.588430" lon="4.383170">
						<ele>551</ele>
						<time>2022-06-17T21:08:18Z</time>
					</trkpt>
					<trkpt lat="45.588960" lon="4.382660">
						<ele>558</ele>
						<time>2022-06-17T21:09:44Z</time>
					</trkpt>
					<trkpt lat="45.589200" lon="4.382460">
						<ele>560</ele>
						<time>2022-06-17T21:10:21Z</time>
					</trkpt>
					<trkpt lat="45.589470" lon="4.382300">
						<ele>562</ele>
						<time>2022-06-17T21:11:00Z</time>
					</trkpt>
					<trkpt lat="45.589860" lon="4.382190">
						<ele>564</ele>
						<time>2022-06-17T21:11:53Z</time>
					</trkpt>
					<trkpt lat="45.590020" lon="4.382190">
						<ele>565</ele>
						<time>2022-06-17T21:12:14Z</time>
					</trkpt>
					<trkpt lat="45.590190" lon="4.382240">
						<ele>566</ele>
						<time>2022-06-17T21:12:37Z</time>
					</trkpt>
					<trkpt lat="45.590380" lon="4.382360">
						<ele>567</ele>
						<time>2022-06-17T21:13:05Z</time>
					</trkpt>
					<trkpt lat="45.590670" lon="4.382600">
						<ele>570</ele>
						<time>2022-06-17T21:13:50Z</time>
					</trkpt>
					<trkpt lat="45.590940" lon="4.382870">
						<ele>572</ele>
						<time>2022-06-17T21:14:34Z</time>
					</trkpt>
					<trkpt lat="45.591350" lon="4.383390">
						<ele>577</ele>
						<time>2022-06-17T21:15:47Z</time>
					</trkpt>
					<trkpt lat="45.591620" lon="4.383790">
						<ele>579</ele>
						<time>2022-06-17T21:16:39Z</time>
					</trkpt>
					<trkpt lat="45.591760" lon="4.384050">
						<ele>580</ele>
						<time>2022-06-17T21:17:10Z</time>
					</trkpt>
					<trkpt lat="45.591870" lon="4.384310">
						<ele>581</ele>
						<time>2022-06-17T21:17:38Z</time>
					</trkpt>
					<trkpt lat="45.591960" lon="4.384580">
						<ele>583</ele>
						<time>2022-06-17T21:18:06Z</time>
					</trkpt>
					<trkpt lat="45.592020" lon="4.384840">
						<ele>585</ele>
						<time>2022-06-17T21:18:31Z</time>
					</trkpt>
					<trkpt lat="45.592050" lon="4.385100">
						<ele>586</ele>
						<time>2022-06-17T21:18:56Z</time>
					</trkpt>
					<trkpt lat="45.592090" lon="4.385240">
						<ele>587</ele>
						<time>2022-06-17T21:19:10Z</time>
					</trkpt>
					<trkpt lat="45.592280" lon="4.385860">
						<ele>590</ele>
						<time>2022-06-17T21:20:13Z</time>
					</trkpt>
					<trkpt lat="45.592400" lon="4.386080">
						<ele>590</ele>
						<time>2022-06-17T21:20:39Z</time>
					</trkpt>
					<trkpt lat="45.592410" lon="4.386180">
						<ele>590</ele>
						<time>2022-06-17T21:20:49Z</time>
					</trkpt>
					<trkpt lat="45.592390" lon="4.386290">
						<ele>590</ele>
						<time>2022-06-17T21:20:59Z</time>
					</trkpt>
					<trkpt lat="45.592290" lon="4.386660">
						<ele>589</ele>
						<time>2022-06-17T21:21:36Z</time>
					</trkpt>
					<trkpt lat="45.592240" lon="4.386760">
						<ele>589</ele>
						<time>2022-06-17T21:21:48Z</time>
					</trkpt>
					<trkpt lat="45.592000" lon="4.387080">
						<ele>588</ele>
						<time>2022-06-17T21:22:32Z</time>
					</trkpt>
					<trkpt lat="45.591980" lon="4.387170">
						<ele>587</ele>
						<time>2022-06-17T21:22:41Z</time>
					</trkpt>
					<trkpt lat="45.592030" lon="4.387410">
						<ele>586</ele>
						<time>2022-06-17T21:23:04Z</time>
					</trkpt>
					<trkpt lat="45.592100" lon="4.387620">
						<ele>585</ele>
						<time>2022-06-17T21:23:26Z</time>
					</trkpt>
					<trkpt lat="45.592390" lon="4.388300">
						<ele>581</ele>
						<time>2022-06-17T21:24:40Z</time>
					</trkpt>
					<trkpt lat="45.591520" lon="4.389790">
						<ele>581</ele>
						<time>2022-06-17T21:27:41Z</time>
					</trkpt>
					<trkpt lat="45.590970" lon="4.390850">
						<ele>579</ele>
						<time>2022-06-17T21:29:44Z</time>
					</trkpt>
					<trkpt lat="45.590430" lon="4.392980">
						<ele>586</ele>
						<time>2022-06-17T21:33:16Z</time>
					</trkpt>
					<trkpt lat="45.589730" lon="4.395380">
						<ele>592</ele>
						<time>2022-06-17T21:37:19Z</time>
					</trkpt>
					<trkpt lat="45.589550" lon="4.395850">
						<ele>593</ele>
						<time>2022-06-17T21:38:09Z</time>
					</trkpt>
					<trkpt lat="45.589480" lon="4.395910">
						<ele>594</ele>
						<time>2022-06-17T21:38:20Z</time>
					</trkpt>
					<trkpt lat="45.589490" lon="4.396070">
						<ele>594</ele>
						<time>2022-06-17T21:38:35Z</time>
					</trkpt>
					<trkpt lat="45.589350" lon="4.398480">
						<ele>604</ele>
						<time>2022-06-17T21:42:21Z</time>
					</trkpt>
					<trkpt lat="45.588650" lon="4.400290">
						<ele>618</ele>
						<time>2022-06-17T21:45:34Z</time>
					</trkpt>
					<trkpt lat="45.588240" lon="4.400710">
						<ele>621</ele>
						<time>2022-06-17T21:46:41Z</time>
					</trkpt>
					<trkpt lat="45.588180" lon="4.400850">
						<ele>622</ele>
						<time>2022-06-17T21:46:56Z</time>
					</trkpt>
					</trkseg>
				</trk>
			</gpx>